createdAt,value
2023-01-27T00:03:26.124Z,-1.01
2023-01-27T00:08:26.877Z,-0.94
2023-01-27T00:13:32.112Z,-1.03
2023-01-27T00:18:34.187Z,-0.92
2023-01-27T00:23:52.657Z,-0.80
2023-01-27T00:28:53.370Z,-0.90
2023-01-27T00:33:56.271Z,-0.89
2023-01-27T00:38:57.111Z,-1.08
2023-01-27T00:43:57.780Z,-1.01
2023-01-27T00:48:59.833Z,-1.03
2023-01-27T00:54:03.056Z,-1.09
2023-01-27T00:59:04.471Z,-0.82
2023-01-27T01:04:06.554Z,-0.81
2023-01-27T01:09:07.307Z,-0.79
2023-01-27T01:14:07.983Z,-0.91
2023-01-27T01:19:10.561Z,-0.86
2023-01-27T01:24:11.326Z,-0.75
2023-01-27T01:29:12.023Z,-0.66
2023-01-27T01:34:14.019Z,-0.73
2023-01-27T01:39:14.692Z,-0.86
2023-01-27T01:44:27.932Z,-0.84
2023-01-27T01:49:34.107Z,-1.06
2023-01-27T01:54:38.591Z,-0.85
2023-01-27T01:59:45.118Z,-0.70
2023-01-27T02:04:50.363Z,-0.74
2023-01-27T02:09:51.018Z,-0.87
2023-01-27T02:14:51.767Z,-0.84
2023-01-27T02:20:03.473Z,-0.74
2023-01-27T02:25:13.738Z,-0.77
2023-01-27T02:30:15.973Z,-0.67
2023-01-27T02:35:22.788Z,-0.72
2023-01-27T02:40:25.826Z,-0.89
2023-01-27T02:45:29.074Z,-0.87
2023-01-27T02:50:29.868Z,-0.82
2023-01-27T02:55:30.537Z,-0.80
2023-01-27T03:00:32.569Z,-0.68
2023-01-27T03:05:33.339Z,-0.67
2023-01-27T03:10:34.045Z,-0.78
2023-01-27T03:15:54.136Z,-0.70
2023-01-27T03:21:02.686Z,-0.94
2023-01-27T03:26:07.319Z,-0.96
2023-01-27T03:31:19.447Z,-0.94
2023-01-27T03:36:43.379Z,-0.81
2023-01-27T03:42:01.968Z,-0.83
2023-01-27T03:47:04.124Z,-1.05
2023-01-27T03:52:05.205Z,-1.03
2023-01-27T03:57:06.259Z,-0.99
2023-01-27T04:02:26.703Z,-1.05
2023-01-27T04:07:27.370Z,-1.02
2023-01-27T04:12:28.052Z,-1.14
2023-01-27T04:17:30.699Z,-1.03
2023-01-27T04:22:31.394Z,-1.03
2023-01-27T04:27:32.074Z,-0.96
2023-01-27T04:32:34.086Z,-0.91
2023-01-27T04:37:34.946Z,-0.99
2023-01-27T04:42:35.654Z,-0.97
2023-01-27T04:47:37.637Z,-0.93
2023-01-27T04:52:38.402Z,-0.87
2023-01-27T04:57:39.053Z,-0.92
2023-01-27T05:02:41.158Z,-1.01
2023-01-27T05:07:42.005Z,-0.96
2023-01-27T05:12:42.671Z,-0.86
2023-01-27T05:17:44.642Z,-0.91
2023-01-27T05:22:45.296Z,-0.96
2023-01-27T05:27:46.059Z,-0.97
2023-01-27T05:32:48.073Z,-0.91
2023-01-27T05:37:48.753Z,-0.94
2023-01-27T05:42:52.114Z,-0.78
2023-01-27T05:47:54.112Z,-0.89
2023-01-27T05:52:54.812Z,-0.84
2023-01-27T05:57:55.838Z,-0.83
2023-01-27T06:02:58.916Z,-0.79
2023-01-27T06:07:59.608Z,-0.72
2023-01-27T06:13:00.822Z,-0.66
2023-01-27T06:18:02.872Z,-0.82
2023-01-27T06:23:03.594Z,-0.86
2023-01-27T06:28:04.612Z,-0.75
2023-01-27T06:33:07.595Z,-0.82
2023-01-27T06:38:12.475Z,-0.79
2023-01-27T06:43:14.612Z,-0.90
2023-01-27T06:48:16.748Z,-0.93
2023-01-27T06:53:17.405Z,-0.85
2023-01-27T06:58:18.107Z,-0.74
2023-01-27T07:03:20.291Z,-0.91
2023-01-27T07:08:21.004Z,-1.00
2023-01-27T07:13:21.720Z,-0.96
2023-01-27T07:18:24.142Z,-0.78
2023-01-27T07:23:24.878Z,-0.99
2023-01-27T07:28:25.585Z,-0.94
2023-01-27T07:33:28.307Z,-0.89
2023-01-27T07:38:29.143Z,-0.92
2023-01-27T07:43:29.903Z,-0.91
2023-01-27T07:48:32.636Z,-0.70
2023-01-27T07:53:33.348Z,-0.67
2023-01-27T07:58:34.070Z,-0.91
2023-01-27T08:03:37.025Z,-0.97
2023-01-27T08:08:38.310Z,-0.76
2023-01-27T08:13:39.110Z,-0.81
2023-01-27T08:18:41.174Z,-0.66
2023-01-27T08:23:42.202Z,-0.55
2023-01-27T08:28:43.045Z,-0.76
2023-01-27T08:33:47.006Z,-0.73
2023-01-27T08:38:49.252Z,-0.73
2023-01-27T08:43:50.209Z,-0.88
2023-01-27T08:48:52.268Z,-0.79
2023-01-27T08:53:52.946Z,-0.68
2023-01-27T08:58:53.596Z,-0.69
2023-01-27T09:03:55.669Z,-0.70
2023-01-27T09:09:11.697Z,-0.67
2023-01-27T09:14:13.826Z,-0.61
2023-01-27T09:19:16.929Z,-0.54
2023-01-27T09:24:19.424Z,-0.63
2023-01-27T09:29:20.381Z,-0.54
2023-01-27T09:34:22.391Z,-0.43
2023-01-27T09:39:23.825Z,-0.56
2023-01-27T09:44:43.482Z,-0.49
2023-01-27T09:50:04.601Z,-0.47
2023-01-27T09:55:13.503Z,-0.30
2023-01-27T10:00:26.033Z,-0.34
2023-01-27T10:05:43.187Z,-0.33
2023-01-27T10:11:04.897Z,-0.38
2023-01-27T10:16:21.349Z,-0.24
2023-01-27T10:21:34.847Z,-0.12
2023-01-27T10:26:42.124Z,-0.08
2023-01-27T10:31:48.379Z,-0.15
2023-01-27T10:37:01.522Z,-0.19
2023-01-27T10:42:11.068Z,-0.19
2023-01-27T10:47:20.235Z,-0.41
2023-01-27T10:52:27.607Z,-0.29
2023-01-27T10:57:33.788Z,-0.19
2023-01-27T11:02:42.180Z,-0.29
2023-01-27T11:07:49.605Z,-0.38
2023-01-27T11:12:55.413Z,-0.32
2023-01-27T11:18:02.434Z,-0.26
2023-01-27T11:23:15.109Z,-0.43
2023-01-27T11:28:28.128Z,-0.39
2023-01-27T11:33:37.172Z,-0.22
2023-01-27T11:38:39.275Z,-0.27
2023-01-27T11:43:40.512Z,-0.29
2023-01-27T11:48:45.146Z,-0.12
2023-01-27T11:53:52.979Z,-0.15
2023-01-27T11:59:02.161Z,-0.03
2023-01-27T12:04:07.964Z,-0.01
2023-01-27T12:09:34.441Z,-0.06
2023-01-27T12:14:35.144Z,-0.01
2023-01-27T12:19:41.263Z,0.04
2023-01-27T12:24:51.331Z,-0.06
2023-01-27T12:29:55.994Z,-0.01
2023-01-27T12:34:57.138Z,0.09
2023-01-27T12:40:03.598Z,0.18
2023-01-27T12:45:26.525Z,0.23
2023-01-27T12:50:29.747Z,0.24
2023-01-27T12:55:34.651Z,0.22
2023-01-27T13:00:36.119Z,0.27
2023-01-27T13:05:39.527Z,0.27
2023-01-27T13:10:53.076Z,0.38
2023-01-27T13:15:57.735Z,0.40
2023-01-27T13:21:08.597Z,0.15
2023-01-27T13:26:18.880Z,0.23
2023-01-27T13:31:36.703Z,0.36
2023-01-27T13:36:42.006Z,0.37
2023-01-27T13:41:51.088Z,0.34
2023-01-27T13:46:52.557Z,0.44
2023-01-27T13:51:53.467Z,0.64
2023-01-27T13:57:06.678Z,0.51
2023-01-27T14:02:28.669Z,0.53
2023-01-27T14:07:39.319Z,0.71
2023-01-27T14:13:00.272Z,0.48
2023-01-27T14:18:10.380Z,0.57
2023-01-27T14:23:32.630Z,0.53
2023-01-27T14:28:43.352Z,0.60
2023-01-27T14:33:58.893Z,0.60
2023-01-27T14:39:08.170Z,0.49
2023-01-27T14:44:20.923Z,0.42
2023-01-27T14:49:31.463Z,0.51
2023-01-27T14:54:56.582Z,0.55
2023-01-27T15:00:09.621Z,0.47
2023-01-27T15:05:19.332Z,0.40
2023-01-27T15:10:24.706Z,0.52
2023-01-27T15:15:58.167Z,0.45
2023-01-27T15:21:21.040Z,0.44
2023-01-27T15:26:25.807Z,0.43
2023-01-27T15:31:28.392Z,0.46
2023-01-27T15:36:40.162Z,0.34
2023-01-27T15:41:53.001Z,0.46
2023-01-27T15:46:55.722Z,0.37
2023-01-27T15:52:11.619Z,0.37
2023-01-27T15:57:26.399Z,0.44
2023-01-27T16:02:29.564Z,0.40
2023-01-27T16:07:35.306Z,0.42
2023-01-27T16:12:42.569Z,0.42
2023-01-27T16:17:59.007Z,0.45
2023-01-27T16:23:06.536Z,0.37
2023-01-27T16:28:14.461Z,0.30
2023-01-27T16:33:19.895Z,0.37
2023-01-27T16:38:30.685Z,0.42
2023-01-27T16:43:35.105Z,0.38
2023-01-27T16:48:42.718Z,0.47
2023-01-27T16:53:49.289Z,0.52
2023-01-27T16:58:51.268Z,0.58
2023-01-27T17:04:00.624Z,0.59
2023-01-27T17:09:21.136Z,0.60
2023-01-27T17:14:31.016Z,0.61
2023-01-27T17:19:34.271Z,0.52
2023-01-27T17:24:39.284Z,0.55
2023-01-27T17:29:43.348Z,0.53
2023-01-27T17:34:44.071Z,0.51
2023-01-27T17:39:47.550Z,0.53
2023-01-27T17:44:50.519Z,0.60
2023-01-27T17:49:52.375Z,0.50
2023-01-27T17:54:54.902Z,0.45
2023-01-27T18:00:03.982Z,0.46
2023-01-27T18:05:18.924Z,0.53
2023-01-27T18:10:27.863Z,0.45
2023-01-27T18:15:40.924Z,0.49
2023-01-27T18:20:41.624Z,0.49
2023-01-27T18:25:51.534Z,0.42
2023-01-27T18:30:52.654Z,0.44
2023-01-27T18:35:58.046Z,0.51
2023-01-27T18:41:13.450Z,0.49
2023-01-27T18:46:14.160Z,0.51
2023-01-27T18:51:16.663Z,0.48
2023-01-27T18:56:18.669Z,0.55
2023-01-27T19:01:23.154Z,0.53
2023-01-27T19:06:24.086Z,0.45
2023-01-27T19:11:26.178Z,0.57
2023-01-27T19:16:27.354Z,0.60
2023-01-27T19:21:28.767Z,0.56
2023-01-27T19:26:31.129Z,0.59
2023-01-27T19:31:31.849Z,0.46
2023-01-27T19:36:41.584Z,0.45
2023-01-27T19:41:45.593Z,0.64
2023-01-27T19:46:46.669Z,0.62
2023-01-27T19:51:47.381Z,0.55
2023-01-27T19:56:49.441Z,0.51
2023-01-27T20:01:50.375Z,0.65
2023-01-27T20:06:51.179Z,0.65
2023-01-27T20:11:53.336Z,0.72
2023-01-27T20:16:54.079Z,0.79
2023-01-27T20:21:58.248Z,0.82
2023-01-27T20:27:00.255Z,0.79
2023-01-27T20:32:01.037Z,0.87
2023-01-27T20:37:01.797Z,0.95
2023-01-27T20:42:03.908Z,0.93
2023-01-27T20:47:04.577Z,0.97
2023-01-27T20:52:05.452Z,0.92
2023-01-27T20:57:07.547Z,0.93
2023-01-27T21:02:08.382Z,0.94
2023-01-27T21:07:09.485Z,0.95
2023-01-27T21:12:11.478Z,0.95
2023-01-27T21:17:12.792Z,1.00
2023-01-27T21:22:13.467Z,1.05
2023-01-27T21:27:15.484Z,0.92
2023-01-27T21:32:16.210Z,0.89
2023-01-27T21:37:17.475Z,0.98
2023-01-27T21:42:37.917Z,1.06
2023-01-27T21:47:38.754Z,0.99
2023-01-27T21:52:42.282Z,1.02
2023-01-27T21:57:45.970Z,1.00
2023-01-27T22:02:53.577Z,0.98
2023-01-27T22:07:54.683Z,1.03
2023-01-27T22:12:59.685Z,1.10
2023-01-27T22:18:00.774Z,1.17
2023-01-27T22:23:01.472Z,1.03
2023-01-27T22:28:03.901Z,1.02
2023-01-27T22:33:04.704Z,1.08
2023-01-27T22:38:05.348Z,1.07
2023-01-27T22:43:10.246Z,1.06
2023-01-27T22:48:10.931Z,1.07
2023-01-27T22:53:12.077Z,1.12
2023-01-27T22:58:14.816Z,1.12
2023-01-27T23:03:15.852Z,0.95
2023-01-27T23:08:20.488Z,0.88
2023-01-27T23:13:22.535Z,0.97
2023-01-27T23:18:23.237Z,0.95
2023-01-27T23:23:23.962Z,0.90
2023-01-27T23:28:26.302Z,0.84
2023-01-27T23:33:29.994Z,0.83
2023-01-27T23:38:33.697Z,0.89
2023-01-27T23:43:36.201Z,0.77
2023-01-27T23:48:36.873Z,0.77
2023-01-27T23:53:37.560Z,0.72
2023-01-27T23:58:39.798Z,0.57
